createdAt,value
2022-10-21T00:00:39.656Z,9.35
2022-10-21T00:03:07.354Z,8.60
2022-10-21T00:05:34.429Z,9.65
2022-10-21T00:08:01.418Z,8.98
2022-10-21T00:10:28.927Z,8.50
2022-10-21T00:12:55.964Z,9.23
2022-10-21T00:15:22.989Z,9.07
2022-10-21T00:17:50.124Z,9.40
2022-10-21T00:20:17.522Z,9.88
2022-10-21T00:22:44.645Z,9.35
2022-10-21T00:25:11.749Z,8.98
2022-10-21T00:27:39.323Z,9.15
2022-10-21T00:30:08.670Z,9.18
2022-10-21T00:32:36.192Z,9.32
2022-10-21T00:35:03.632Z,9.18
2022-10-21T00:37:32.025Z,9.55
2022-10-21T00:40:02.375Z,8.75
2022-10-21T00:42:37.852Z,8.45
2022-10-21T00:45:06.689Z,8.98
2022-10-21T00:47:40.796Z,9.13
2022-10-21T00:50:42.463Z,8.98
2022-10-21T00:53:13.856Z,8.77
2022-10-21T00:55:52.595Z,9.15
2022-10-21T00:58:24.251Z,8.48
2022-10-21T01:00:54.983Z,8.85
2022-10-21T01:03:24.366Z,8.50
2022-10-21T01:05:52.775Z,8.77
2022-10-21T01:08:20.839Z,8.68
2022-10-21T01:10:50.826Z,8.98
2022-10-21T01:13:48.627Z,8.13
2022-10-21T01:16:50.575Z,8.25
2022-10-21T01:19:26.309Z,8.45
2022-10-21T01:22:01.930Z,8.40
2022-10-21T01:24:54.861Z,7.90
2022-10-21T01:27:26.254Z,8.82
2022-10-21T01:30:01.869Z,7.53
2022-10-21T01:32:34.885Z,8.80
2022-10-21T01:35:21.732Z,7.70
2022-10-21T01:38:09.431Z,8.07
2022-10-21T01:41:10.005Z,7.85
2022-10-21T01:43:55.791Z,7.65
2022-10-21T01:48:58.242Z,7.75
2022-10-21T01:51:29.047Z,7.60
2022-10-21T01:54:26.014Z,7.53
2022-10-21T01:56:54.614Z,7.22
2022-10-21T01:59:25.251Z,7.90
2022-10-21T02:01:53.529Z,7.88
2022-10-21T02:04:22.119Z,7.20
2022-10-21T02:06:49.541Z,7.00
2022-10-21T02:09:16.640Z,7.22
2022-10-21T02:11:47.245Z,7.03
2022-10-21T02:14:32.465Z,7.07
2022-10-21T02:17:00.723Z,7.15
2022-10-21T02:19:28.274Z,6.78
2022-10-21T02:22:00.549Z,6.88
2022-10-21T02:24:39.524Z,6.57
2022-10-21T02:27:06.783Z,6.43
2022-10-21T02:29:41.934Z,6.95
2022-10-21T02:32:36.856Z,6.80
2022-10-21T02:35:46.420Z,6.55
2022-10-21T02:38:38.361Z,6.85
2022-10-21T02:41:10.455Z,6.35
2022-10-21T02:43:44.191Z,6.55
2022-10-21T02:46:13.820Z,6.38
2022-10-21T02:48:47.291Z,7.10
2022-10-21T02:51:14.883Z,6.38
2022-10-21T02:53:42.269Z,6.68
2022-10-21T02:56:09.466Z,6.43
2022-10-21T02:58:36.554Z,6.72
2022-10-21T03:01:06.209Z,6.55
2022-10-21T03:03:33.388Z,6.78
2022-10-21T03:06:00.409Z,6.82
2022-10-21T03:08:27.516Z,6.93
2022-10-21T03:10:55.441Z,6.57
2022-10-21T03:13:23.199Z,6.97
2022-10-21T03:15:51.029Z,6.75
2022-10-21T03:18:18.884Z,6.80
2022-10-21T03:20:50.316Z,6.80
2022-10-21T03:23:20.834Z,7.80
2022-10-21T03:25:48.178Z,6.90
2022-10-21T03:28:15.554Z,7.20
2022-10-21T03:30:42.725Z,6.90
2022-10-21T03:33:09.734Z,7.40
2022-10-21T03:35:36.780Z,7.45
2022-10-21T03:38:03.876Z,7.10
2022-10-21T03:40:30.860Z,7.70
2022-10-21T03:42:58.959Z,7.03
2022-10-21T03:45:26.528Z,7.80
2022-10-21T03:47:53.479Z,7.85
2022-10-21T03:50:26.098Z,7.55
2022-10-21T03:52:53.841Z,7.13
2022-10-21T03:55:24.240Z,7.40
2022-10-21T03:57:52.429Z,7.63
2022-10-21T04:00:19.741Z,7.20
2022-10-21T04:02:46.840Z,7.43
2022-10-21T04:05:13.841Z,7.75
2022-10-21T04:07:41.124Z,7.35
2022-10-21T04:10:08.894Z,7.93
2022-10-21T04:12:36.217Z,8.75
2022-10-21T04:15:04.469Z,7.30
2022-10-21T04:17:31.494Z,7.50
2022-10-21T04:19:58.475Z,7.53
2022-10-21T04:22:25.560Z,7.60
2022-10-21T04:24:52.584Z,7.93
2022-10-21T04:27:19.655Z,7.47
2022-10-21T04:29:46.675Z,7.13
2022-10-21T04:32:13.828Z,7.40
2022-10-21T04:34:40.990Z,7.85
2022-10-21T04:37:08.274Z,6.85
2022-10-21T04:39:35.421Z,7.70
2022-10-21T04:42:05.664Z,7.00
2022-10-21T04:44:37.455Z,7.57
2022-10-21T04:47:06.275Z,7.20
2022-10-21T04:49:33.424Z,7.72
2022-10-21T04:52:00.917Z,7.22
2022-10-21T04:54:27.989Z,7.38
2022-10-21T04:56:55.040Z,7.45
2022-10-21T04:59:22.211Z,6.60
2022-10-21T05:01:51.686Z,7.00
2022-10-21T05:04:18.889Z,7.22
2022-10-21T05:06:45.976Z,7.28
2022-10-21T05:09:13.269Z,6.95
2022-10-21T05:11:40.284Z,6.97
2022-10-21T05:16:50.952Z,6.82
2022-10-21T05:19:17.974Z,6.97
2022-10-21T05:21:47.637Z,7.72
2022-10-21T05:24:15.949Z,8.32
2022-10-21T05:26:45.613Z,8.30
2022-10-21T05:29:12.720Z,7.10
2022-10-21T05:31:44.198Z,7.45
2022-10-21T05:34:15.520Z,8.60
2022-10-21T05:36:42.516Z,12.52
2022-10-21T05:39:11.611Z,9.65
2022-10-21T05:41:41.024Z,12.38
2022-10-21T05:44:10.110Z,11.38
2022-10-21T05:46:37.115Z,14.52
2022-10-21T05:49:04.341Z,17.20
2022-10-21T05:51:33.201Z,17.13
2022-10-21T05:54:00.269Z,12.98
2022-10-21T05:56:27.389Z,11.00
2022-10-21T05:58:54.452Z,12.55
2022-10-21T06:01:21.555Z,14.90
2022-10-21T06:03:48.710Z,13.98
2022-10-21T06:06:16.097Z,16.92
2022-10-21T06:08:43.275Z,18.08
2022-10-21T06:11:16.705Z,26.40
2022-10-21T06:13:43.941Z,16.98
2022-10-21T06:16:12.594Z,12.40
2022-10-21T06:18:40.812Z,20.73
2022-10-21T06:21:08.309Z,21.65
2022-10-21T06:23:35.813Z,16.23
2022-10-21T06:26:16.041Z,11.82
2022-10-21T06:28:44.560Z,16.30
2022-10-21T06:31:15.072Z,13.50
2022-10-21T06:33:42.575Z,12.00
2022-10-21T06:36:09.674Z,32.92
2022-10-21T06:38:37.855Z,32.50
2022-10-21T06:41:10.533Z,23.30
2022-10-21T06:43:40.625Z,17.98
2022-10-21T06:46:10.374Z,19.77
2022-10-21T06:48:37.435Z,17.80
2022-10-21T06:51:07.205Z,18.30
2022-10-21T06:53:38.111Z,14.88
2022-10-21T06:56:09.559Z,20.63
2022-10-21T06:58:37.791Z,16.92
2022-10-21T07:01:27.263Z,15.98
2022-10-21T07:04:00.362Z,19.08
2022-10-21T07:06:27.574Z,24.45
2022-10-21T07:08:58.157Z,26.38
2022-10-21T07:11:27.294Z,25.92
2022-10-21T07:13:57.205Z,17.00
2022-10-21T07:16:26.661Z,17.80
2022-10-21T07:18:54.191Z,17.08
2022-10-21T07:21:23.524Z,16.38
2022-10-21T07:34:56.040Z,17.55
2022-10-21T07:37:23.360Z,17.60
2022-10-21T07:51:30.197Z,31.88
2022-10-21T07:54:00.171Z,22.27
2022-10-21T07:56:33.142Z,25.65
2022-10-21T07:59:01.686Z,20.27
2022-10-21T08:01:29.436Z,32.47
2022-10-21T08:03:57.723Z,23.58
2022-10-21T08:06:26.232Z,16.98
2022-10-21T08:08:53.704Z,15.43
2022-10-21T08:11:25.863Z,21.27
2022-10-21T08:13:53.703Z,15.02
2022-10-21T08:16:21.297Z,48.05
2022-10-21T08:18:48.877Z,20.35
2022-10-21T08:21:16.743Z,18.02
2022-10-21T08:23:44.377Z,20.42
2022-10-21T08:26:14.668Z,16.10
2022-10-21T08:28:44.212Z,16.13
2022-10-21T08:31:14.375Z,18.30
2022-10-21T08:33:41.886Z,18.60
2022-10-21T08:36:21.547Z,17.27
2022-10-21T08:38:49.703Z,19.15
2022-10-21T08:41:25.403Z,18.60
2022-10-21T08:43:54.596Z,21.52
2022-10-21T08:46:27.337Z,28.73
2022-10-21T08:49:08.226Z,23.10
2022-10-21T08:51:51.047Z,23.35
2022-10-21T08:54:26.651Z,17.05
2022-10-21T08:56:56.717Z,13.60
2022-10-21T08:59:25.586Z,16.52
2022-10-21T09:02:05.904Z,12.82
2022-10-21T09:04:52.322Z,13.27
2022-10-21T09:07:53.507Z,13.85
2022-10-21T09:10:51.427Z,15.23
2022-10-21T09:13:42.332Z,11.13
2022-10-21T09:16:19.435Z,12.15
2022-10-21T09:19:08.182Z,11.38
2022-10-21T09:21:52.867Z,12.27
2022-10-21T09:24:34.068Z,13.30
2022-10-21T09:27:03.571Z,12.25
2022-10-21T09:29:50.122Z,11.50
2022-10-21T09:32:43.226Z,10.52
2022-10-21T09:35:22.101Z,11.80
2022-10-21T09:37:54.237Z,10.48
2022-10-21T09:40:30.276Z,12.00
2022-10-21T09:42:59.778Z,12.25
2022-10-21T09:45:37.064Z,12.07
2022-10-21T09:49:06.941Z,10.20
2022-10-21T09:51:35.491Z,9.07
2022-10-21T09:54:12.416Z,11.43
2022-10-21T09:57:05.802Z,10.23
2022-10-21T09:59:33.636Z,10.25
2022-10-21T10:02:16.287Z,10.50
2022-10-21T10:04:43.381Z,10.07
2022-10-21T10:07:34.986Z,9.65
2022-10-21T10:10:22.502Z,9.32
2022-10-21T10:12:57.416Z,9.35
2022-10-21T10:15:44.941Z,9.48
2022-10-21T10:18:26.571Z,10.88
2022-10-21T10:21:14.991Z,9.73
2022-10-21T10:23:44.577Z,10.02
2022-10-21T10:26:18.442Z,10.02
2022-10-21T10:28:52.057Z,9.25
2022-10-21T10:31:34.136Z,10.52
2022-10-21T10:34:08.237Z,8.43
2022-10-21T10:36:38.167Z,8.18
2022-10-21T10:39:34.065Z,9.77
2022-10-21T10:42:02.286Z,8.85
2022-10-21T10:44:43.431Z,9.23
2022-10-21T10:47:29.611Z,9.95
2022-10-21T10:49:59.316Z,10.27
2022-10-21T10:52:26.404Z,8.73
2022-10-21T10:55:12.056Z,8.88
2022-10-21T10:57:46.020Z,8.55
2022-10-21T11:00:25.546Z,8.30
2022-10-21T11:03:07.553Z,8.43
2022-10-21T11:06:13.506Z,9.25
2022-10-21T11:09:02.526Z,9.55
2022-10-21T11:11:46.351Z,8.55
2022-10-21T11:14:21.754Z,8.48
2022-10-21T11:16:59.625Z,8.38
2022-10-21T11:20:04.764Z,8.55
2022-10-21T11:23:09.423Z,8.88
2022-10-21T11:25:43.641Z,7.97
2022-10-21T11:28:44.561Z,8.85
2022-10-21T11:31:37.326Z,9.25
2022-10-21T11:34:31.675Z,8.45
2022-10-21T11:37:20.483Z,8.85
2022-10-21T11:40:22.527Z,10.18
2022-10-21T11:42:52.531Z,9.48
2022-10-21T11:45:32.096Z,8.82
2022-10-21T11:48:08.736Z,8.60
2022-10-21T11:50:44.117Z,8.57
2022-10-21T11:53:40.761Z,9.18
2022-10-21T11:56:29.440Z,8.05
2022-10-21T11:59:02.312Z,7.75
2022-10-21T12:01:32.481Z,7.60
2022-10-21T12:04:38.144Z,8.50
2022-10-21T12:07:24.251Z,8.85
2022-10-21T12:10:01.687Z,8.13
2022-10-21T12:12:39.745Z,8.05
2022-10-21T12:15:34.726Z,8.25
2022-10-21T12:18:04.991Z,7.20
2022-10-21T12:20:33.161Z,7.72
2022-10-21T12:23:06.401Z,7.95
2022-10-21T12:25:39.421Z,8.50
2022-10-21T12:28:25.804Z,7.72
2022-10-21T12:31:11.966Z,8.10
2022-10-21T12:33:40.882Z,7.30
2022-10-21T12:36:44.801Z,8.15
2022-10-21T12:39:46.516Z,7.95
2022-10-21T12:42:25.532Z,8.77
2022-10-21T12:44:53.633Z,7.88
2022-10-21T12:47:36.919Z,8.35
2022-10-21T12:50:29.393Z,9.18
2022-10-21T12:53:20.442Z,8.27
2022-10-21T12:55:58.887Z,9.13
2022-10-21T12:58:28.571Z,7.70
2022-10-21T13:01:00.228Z,8.23
2022-10-21T13:03:45.398Z,7.63
2022-10-21T13:06:12.858Z,7.47
2022-10-21T13:08:39.899Z,8.15
2022-10-21T13:11:14.068Z,7.25
2022-10-21T13:13:43.051Z,7.43
2022-10-21T13:16:19.127Z,8.85
2022-10-21T13:19:01.636Z,7.43
2022-10-21T13:21:34.353Z,7.80
2022-10-21T13:24:15.896Z,7.82
2022-10-21T13:26:51.809Z,7.25
2022-10-21T13:29:41.929Z,8.35
2022-10-21T13:32:22.451Z,7.72
2022-10-21T13:35:03.754Z,7.43
2022-10-21T13:37:43.231Z,7.00
2022-10-21T13:40:19.537Z,7.15
2022-10-21T13:42:54.152Z,7.88
2022-10-21T13:45:36.085Z,6.90
2022-10-21T13:48:05.227Z,6.50
2022-10-21T13:50:38.579Z,8.65
2022-10-21T13:53:35.932Z,7.10
2022-10-21T13:56:06.606Z,7.90
2022-10-21T15:07:35.648Z,7.63
2022-10-21T15:10:02.715Z,6.95
2022-10-21T15:12:48.858Z,7.43
2022-10-21T15:15:40.984Z,6.82
2022-10-21T15:18:20.891Z,7.63
2022-10-21T15:21:01.623Z,7.07
2022-10-21T15:23:40.291Z,6.85
2022-10-21T15:26:37.463Z,7.22
2022-10-21T15:29:25.926Z,7.13
2022-10-21T15:31:53.757Z,7.65
2022-10-21T15:34:21.122Z,6.90
2022-10-21T15:36:48.506Z,7.00
2022-10-21T15:39:15.626Z,6.60
2022-10-21T15:41:43.123Z,7.35
2022-10-21T15:44:17.800Z,7.00
2022-10-21T15:46:50.009Z,7.50
2022-10-21T15:49:22.241Z,7.20
2022-10-21T15:51:50.065Z,6.72
2022-10-21T15:54:18.426Z,6.95
2022-10-21T15:56:49.191Z,6.88
2022-10-21T15:59:22.952Z,6.57
2022-10-21T16:01:51.150Z,6.57
2022-10-21T16:04:19.401Z,6.57
2022-10-21T16:06:48.970Z,7.35
2022-10-21T16:09:29.126Z,6.55
2022-10-21T16:12:00.355Z,6.75
2022-10-21T16:14:30.553Z,6.80
2022-10-21T16:16:59.463Z,6.95
2022-10-21T16:19:26.782Z,7.13
2022-10-21T16:21:54.151Z,7.15
2022-10-21T16:24:24.033Z,6.85
2022-10-21T16:26:54.050Z,6.90
2022-10-21T16:29:24.158Z,6.93
2022-10-21T16:31:51.819Z,7.22
2022-10-21T16:34:19.673Z,8.98
2022-10-21T16:36:46.898Z,8.70
2022-10-21T16:39:25.503Z,8.75
2022-10-21T16:41:52.891Z,10.77
2022-10-21T16:44:19.952Z,8.27
2022-10-21T16:46:55.281Z,9.13
2022-10-21T16:49:27.111Z,8.65
2022-10-21T16:51:54.840Z,8.82
2022-10-21T16:54:35.201Z,8.77
2022-10-21T16:57:59.117Z,9.20
2022-10-21T17:00:26.227Z,8.60
2022-10-21T17:02:53.976Z,8.18
2022-10-21T17:05:50.471Z,8.23
2022-10-21T17:08:17.616Z,8.55
2022-10-21T17:10:45.093Z,7.95
2022-10-21T17:13:15.439Z,8.10
2022-10-21T17:15:42.918Z,8.00
2022-10-21T17:22:17.042Z,7.90
2022-10-21T17:28:25.202Z,8.60
2022-10-21T17:31:04.781Z,8.52
2022-10-21T17:33:32.332Z,7.78
2022-10-21T17:35:59.566Z,7.68
2022-10-21T17:38:26.771Z,7.60
2022-10-21T17:40:56.287Z,7.45
2022-10-21T20:37:09.057Z,5.55
2022-10-21T20:39:56.229Z,5.72
